Latest Weather Observations for Proserpine

IDQ60801

Issued at 8:32 am EST Wednesday 18 October 2017 (issued every 30 minutes, with the page automatically refreshed every 10 minutes)

About weather observations | Map of weather stations | Latest weather observations for QLD | Other Formats
Station Details ID: 033247 Name: PROSERPINE AIRPORT Lat: -20.49 Lon: 148.56 Height: 19.7 m
Data from the previous 72 hours. | See also: Recent months at Proserpine
Date/Time
EST
Temp
°C
App
Temp
°C
Dew
Point
°C
Rel
Hum
%
Delta-T
°C
Wind Press
QNH
hPa
Press
MSL
hPa
Rain since
9am
mm
Dir  Spd
km/h
Gust
km/h
Spd
kts
Gust
kts
18/08:30am 23.4 27.4 22.0 92 0.9 NE 4 7 2 4 1015.2 1015.1 15.0
18/08:14am 23.0 26.6 22.0 94 0.7 NE 6 9 3 5 1014.9 1014.8 15.0
18/08:00am 22.6 26.1 21.8 95 0.5 ENE 6 7 3 4 1014.6 1014.5 15.0
18/07:59am 22.5 25.9 21.7 95 0.5 ENE 6 7 3 4 1014.5 1014.4 15.0
18/07:30am 21.9 24.9 21.2 96 0.5 SSW 7 11 4 6 1013.6 1013.5 15.0
18/07:29am 22.0 25.0 21.3 96 0.5 SSW 7 11 4 6 1013.6 1013.5 15.0
18/07:24am 22.0 25.0 21.3 96 0.5 S 7 11 4 6 1013.5 1013.4 15.0
18/07:04am 21.7 24.2 21.0 96 0.5 SSW 9 13 5 7 1013.3 1013.2 14.2
18/07:02am 21.9 24.1 21.2 96 0.5 SSW 11 13 6 7 1013.0 1012.9 13.4
18/07:00am 21.8 24.0 21.1 96 0.5 SW 11 13 6 7 1012.9 1012.8 13.0
18/06:30am 21.5 23.1 20.8 96 0.5 SSW 13 17 7 9 1012.6 1012.5 13.0
18/06:00am 21.4 23.7 20.6 95 0.5 SSW 9 11 5 6 1012.8 1012.7 13.0
18/05:36am 21.3 24.0 20.6 96 0.5 SW 7 9 4 5 1012.6 1012.5 13.0
18/05:30am 21.3 23.9 20.5 95 0.5 SW 7 9 4 5 1012.6 1012.5 13.0
18/05:00am 21.4 24.3 20.6 95 0.5 SSE 6 7 3 4 1012.2 1012.1 13.0
18/04:30am 21.7 24.5 20.9 95 0.5 SE 7 13 4 7 1011.9 1011.8 13.0
18/04:09am 21.2 23.8 20.5 96 0.5 S 7 9 4 5 1011.6 1011.5 13.0
18/04:00am 21.1 23.7 20.4 96 0.5 S 7 11 4 6 1011.6 1011.5 13.0
18/03:31am 21.1 23.3 20.4 96 0.5 SSW 9 13 5 7 1011.2 1011.1 13.0
18/03:30am 21.1 23.3 20.4 96 0.5 SSW 9 13 5 7 1011.2 1011.1 13.0
18/03:01am 21.1 23.7 20.4 96 0.5 SSW 7 11 4 6 1011.2 1011.1 12.6
18/03:00am 21.1 23.7 20.4 96 0.5 S 7 11 4 6 1011.2 1011.1 12.6
18/02:41am 21.0 22.8 20.3 96 0.5 S 11 15 6 8 1011.0 1010.9 12.6
18/02:40am 21.0 22.8 20.3 96 0.5 S 11 17 6 9 1011.0 1010.9 12.6
18/02:30am 21.0 22.0 20.3 96 0.5 S 15 19 8 10 1010.9 1010.8 12.6
18/02:03am 21.0 22.8 20.3 96 0.5 SSW 11 15 6 8 1011.6 1011.5 12.6
18/02:00am 21.0 22.4 20.3 96 0.5 SSW 13 15 7 8 1011.5 1011.4 12.6
18/01:30am 21.0 22.4 20.3 96 0.5 S 13 17 7 9 1011.5 1011.4 12.4
18/01:00am 20.9 21.9 20.2 96 0.4 SE 15 19 8 10 1011.9 1011.8 12.4
18/12:30am 21.0 22.0 20.2 95 0.5 ESE 15 20 8 11 1012.0 1011.9 12.2
18/12:00am 21.4 22.7 20.9 97 0.3 SE 15 20 8 11 1012.1 1012.0 11.4
 
Date/Time
EST
Temp
°C
App
Temp
°C
Dew
Point
°C
Rel
Hum
%
Delta-T
°C
Wind Press
QNH
hPa
Press
MSL
hPa
Rain since
9am
mm
Dir  Spd
km/h
Gust
km/h
Spd
kts
Gust
kts
17/11:30pm 21.6 23.7 20.9 96 0.5 SE 11 13 6 7 1012.9 1012.8 9.8
17/11:22pm 21.6 24.0 20.9 96 0.5 ENE 9 11 5 6 1013.2 1013.1 9.2
17/11:18pm 21.6 24.4 20.9 96 0.5 ENE 7 11 4 6 1013.4 1013.3 9.0
17/11:00pm 21.6 24.0 20.9 96 0.5 ESE 9 15 5 8 1013.6 1013.5 7.8
17/10:49pm 21.6 25.0 20.9 96 0.5 NE 4 17 2 9 1013.8 1013.7 6.0
17/10:39pm 21.6 25.0 20.9 96 0.5 W 4 6 2 3 1013.8 1013.7 3.6
17/10:30pm 21.5 24.5 20.8 96 0.5 SW 6 7 3 4 1013.7 1013.6 3.0
17/10:00pm 21.8 24.9 21.1 96 0.5 WNW 6 7 3 4 1013.4 1013.3 2.2
17/09:30pm 21.7 24.2 21.0 96 0.5 SSW 9 11 5 6 1013.0 1012.9 2.0
17/09:06pm 22.0 25.0 21.2 95 0.5 SE 7 11 4 6 1012.9 1012.8 2.0
17/09:00pm 22.0 24.6 21.2 95 0.5 SE 9 11 5 6 1012.7 1012.6 2.0
17/08:32pm 21.8 22.4 21.0 95 0.5 SSE 19 26 10 14 1012.5 1012.4 2.0
17/08:30pm 21.7 22.1 20.9 95 0.5 SSE 20 26 11 14 1012.5 1012.4 2.0
17/08:23pm 21.9 22.9 21.1 95 0.5 SSE 17 22 9 12 1012.5 1012.4 2.0
17/08:04pm 22.0 24.4 20.8 93 0.8 ESE 9 13 5 7 1012.4 1012.3 1.4
17/08:00pm 21.9 24.6 20.7 93 0.8 ESE 7 13 4 7 1012.3 1012.2 1.4
17/07:30pm 22.0 24.0 20.8 93 0.8 SSE 11 13 6 7 1011.7 1011.6 1.4
17/07:00pm 21.8 23.9 20.1 90 1.1 S 9 13 5 7 1011.7 1011.6 1.4
17/06:30pm 22.0 24.2 20.3 90 1.1 SSW 9 9 5 5 1011.8 1011.7 1.2
17/06:00pm 22.3 24.5 20.4 89 1.2 S 9 11 5 6 1011.4 1011.3 1.0
17/05:30pm 23.0 25.4 20.9 88 1.4 SSE 9 11 5 6 1011.5 1011.4 0.8
17/05:00pm 23.4 26.2 21.5 89 1.3 SE 9 15 5 8 1011.5 1011.4 0.4
17/04:30pm 24.1 26.2 21.0 83 2.0 ESE 11 15 6 8 1011.2 1011.1 0.2
17/04:00pm 25.1 26.2 20.4 75 3.1 ESE 15 19 8 10 1010.7 1010.6 0.2
17/03:30pm 25.5 25.7 20.1 72 3.5 SE 19 24 10 13 1010.5 1010.4 0.2
17/03:00pm 25.5 25.4 19.9 71 3.6 ESE 20 28 11 15 1010.4 1010.3 0.2
17/02:30pm 26.0 25.7 19.6 68 4.1 SE 20 28 11 15 1010.6 1010.5 0.2
17/02:00pm 27.0 26.8 19.4 63 4.9 ESE 19 30 10 16 1010.7 1010.6 0.2
17/01:30pm 27.0 27.3 19.6 64 4.8 E 17 24 9 13 1010.9 1010.8 0.2
17/01:00pm 26.8 27.5 19.7 65 4.6 ESE 15 22 8 12 1011.2 1011.1 0.2
17/12:30pm 25.6 26.2 20.2 72 3.5 ESE 17 24 9 13 1011.9 1011.8 0.2
17/12:00pm 25.7 25.6 19.6 69 3.9 E 19 26 10 14 1012.5 1012.4 0.2
17/11:30am 25.9 25.8 20.0 70 3.8 ESE 20 28 11 15 1013.0 1012.9 0.2
17/11:00am 26.2 26.5 20.8 72 3.6 ESE 20 28 11 15 1013.1 1013.0 0.2
17/10:30am 25.5 26.2 20.5 74 3.3 ESE 17 22 9 12 1013.5 1013.4 0.2
17/10:00am 24.7 25.7 20.2 76 2.9 ESE 15 19 8 10 1013.8 1013.7 0.0
17/09:34am 24.8 25.6 20.7 78 2.7 ESE 17 22 9 12 1014.0 1013.9 0.0
17/09:30am 24.8 26.1 20.9 79 2.6 ESE 15 22 8 12 1013.9 1013.8 0.0
17/09:00am 23.7 26.3 20.4 82 2.1 ESE 7 13 4 7 1013.7 1013.6 6.6
17/08:44am 23.2 25.9 20.2 83 1.9 E 6 11 3 6 1013.4 1013.3 6.6
17/08:30am 23.0 25.3 19.8 82 2.1 ESE 7 9 4 5 1013.4 1013.3 6.6
17/08:00am 22.8 24.9 20.1 85 1.7 SE 9 15 5 8 1012.8 1012.7 6.6
17/07:30am 21.5 24.0 19.8 90 1.1 SSE 6 7 3 4 1012.6 1012.5 6.6
17/07:00am 20.5 23.1 19.2 92 0.8 SSW 4 7 2 4 1011.9 1011.8 6.6
17/06:30am 19.5 20.9 18.7 95 0.5 SSW 9 9 5 5 1011.2 1011.1 6.6
17/06:07am 19.2 20.1 18.5 96 0.4 SSW 11 15 6 8 1010.9 1010.8 6.6
17/06:00am 19.2 20.5 18.5 96 0.4 SW 9 11 5 6 1011.3 1011.2 6.6
17/05:30am 19.0 19.5 18.3 96 0.4 SW 13 15 7 8 1010.6 1010.5 6.6
17/05:00am 18.7 20.5 18.2 97 0.3 SW 6 6 3 3 1010.3 1010.2 6.6
17/04:30am 18.7 19.9 18.2 97 0.3 SW 9 11 5 6 1010.3 1010.2 6.6
17/04:28am 18.7 19.9 18.2 97 0.3 SW 9 13 5 7 1010.3 1010.2 6.6
17/04:00am 18.5 19.6 18.0 97 0.3 SSW 9 9 5 5 1010.0 1009.9 6.6
17/03:30am 18.6 19.7 18.1 97 0.3 SSE 9 11 5 6 1009.7 1009.6 6.6
17/03:00am 18.6 20.3 18.1 97 0.3 SW 6 7 3 4 1010.6 1010.5 6.6
17/02:30am 18.8 21.7 18.3 97 0.3 CALM 0 0 0 0 1010.6 1010.5 6.6
17/02:00am 18.9 21.1 18.4 97 0.3 SW 4 6 2 3 1011.0 1010.9 6.6
17/01:30am 19.2 22.2 18.5 96 0.4 CALM 0 0 0 0 1011.6 1011.5 6.6
17/01:00am 19.2 22.2 18.5 96 0.4 CALM 0 0 0 0 1012.4 1012.3 6.6
17/12:30am 19.2 21.1 18.5 96 0.4 ENE 6 7 3 4 1012.6 1012.5 6.6
17/12:00am 19.3 21.3 18.8 97 0.3 E 6 9 3 5 1012.7 1012.6 6.6
 
Date/Time
EST
Temp
°C
App
Temp
°C
Dew
Point
°C
Rel
Hum
%
Delta-T
°C
Wind Press
QNH
hPa
Press
MSL
hPa
Rain since
9am
mm
Dir  Spd
km/h
Gust
km/h
Spd
kts
Gust
kts
16/11:30pm 19.3 21.3 18.8 97 0.3 NNW 6 7 3 4 1013.1 1013.0 6.6
16/11:00pm 19.2 21.2 18.7 97 0.3 SSW 6 7 3 4 1013.2 1013.1 6.6
16/10:30pm 19.2 21.2 18.7 97 0.3 SSW 6 11 3 6 1013.5 1013.4 6.6
16/10:00pm 19.3 20.4 18.8 97 0.3 SSW 11 13 6 7 1013.5 1013.4 6.4
16/09:30pm 19.1 20.8 18.6 97 0.3 SW 7 13 4 7 1013.5 1013.4 5.6
16/09:00pm 19.1 19.7 18.6 97 0.3 SSW 13 17 7 9 1013.7 1013.6 5.2
16/08:30pm 19.1 19.3 18.6 97 0.3 SSW 15 19 8 10 1013.6 1013.5 5.0
16/08:12pm 19.1 19.2 18.4 96 0.4 SSW 15 17 8 9 1013.2 1013.1 4.4
16/08:00pm 19.2 19.2 18.2 94 0.6 S 15 19 8 10 1013.0 1012.9 4.2
16/07:41pm 19.9 20.6 18.9 94 0.6 SSW 13 30 7 16 1012.9 1012.8 3.6
16/07:30pm 20.8 23.2 20.1 96 0.4 SSW 7 11 4 6 1012.7 1012.6 3.2
16/07:00pm 20.9 23.5 20.1 95 0.5 SSW 6 7 3 4 1012.3 1012.2 2.4
16/06:30pm 20.9 24.1 19.7 93 0.8 E 2 6 1 3 1012.0 1011.9 1.8
16/06:00pm 20.9 23.3 19.7 93 0.8 NE 6 7 3 4 1011.5 1011.4 1.4
16/05:30pm 21.1 22.6 19.7 92 0.9 NE 11 17 6 9 1011.0 1010.9 1.0
16/05:00pm 22.3 23.4 20.4 89 1.2 ENE 15 20 8 11 1010.8 1010.7 0.6
16/04:30pm 23.0 23.6 20.3 85 1.7 E 17 26 9 14 1010.4 1010.3 0.6
16/04:00pm 23.3 24.7 20.4 84 1.9 E 13 17 7 9 1010.2 1010.1 0.6
16/03:30pm 23.6 25.1 20.5 83 2.0 E 13 19 7 10 1010.3 1010.2 0.6
16/03:00pm 23.4 24.9 20.5 84 1.9 E 13 17 7 9 1009.9 1009.8 0.6
16/02:30pm 23.4 24.4 20.2 82 2.1 E 15 20 8 11 1010.0 1009.9 0.4
16/02:00pm 24.6 24.8 19.4 73 3.3 E 17 26 9 14 1010.3 1010.2 0.2
16/01:30pm 25.2 25.6 19.1 69 3.9 ESE 15 24 8 13 1010.6 1010.5 0.2
16/01:00pm 25.2 25.6 19.8 72 3.5 E 17 24 9 13 1010.7 1010.6 0.2
16/12:30pm 25.3 25.4 19.9 72 3.5 ESE 19 26 10 14 1010.8 1010.7 0.2
16/12:00pm 24.8 24.7 19.6 73 3.4 ESE 19 28 10 15 1011.3 1011.2 0.2
16/11:30am 24.3 25.3 20.2 78 2.7 E 15 20 8 11 1011.9 1011.8 0.2
16/11:06am 23.8 24.8 20.3 81 2.3 ESE 15 20 8 11 1012.2 1012.1 0.2
16/11:00am 23.9 26.2 21.4 86 1.6 ESE 11 17 6 9 1012.3 1012.2 0.2
16/10:30am 22.6 25.6 20.9 90 1.1 N 6 9 3 5 1012.9 1012.8 0.2
16/10:29am 22.8 26.1 21.4 92 0.9 N 6 9 3 5 1012.9 1012.8 0.2
16/10:17am 22.2 25.9 20.8 92 0.9 E 2 6 1 3 1012.9 1012.8 0.2
16/10:00am 21.9 24.3 20.9 94 0.7 ESE 9 13 5 7 1012.9 1012.8 0.0
16/09:30am 21.1 23.6 19.9 93 0.8 ENE 6 13 3 7 1012.9 1012.8 0.0
16/09:00am 20.8 22.3 19.8 94 0.6 E 11 15 6 8 1012.9 1012.8 22.8
16/08:30am 21.4 24.6 20.4 94 0.6 NNW 4 7 2 4 1013.0 1012.9 22.6
16/08:00am 21.3 24.1 20.5 95 0.5 NW 6 9 3 5 1013.0 1012.9 22.6
16/07:31am 21.2 25.1 20.4 95 0.5 CALM 0 0 0 0 1012.9 1012.8 22.0
16/07:30am 21.3 25.3 20.5 95 0.5 CALM 0 0 0 0 1012.9 1012.8 22.0
16/07:15am 21.1 23.6 20.3 95 0.5 SSE 7 13 4 7 1012.6 1012.5 22.0
16/07:00am 20.9 22.6 20.1 95 0.5 SSE 11 15 6 8 1012.4 1012.3 22.0
16/06:50am 20.8 22.9 20.1 96 0.4 SE 9 15 5 8 1012.4 1012.3 22.0
16/06:31am 20.6 21.1 20.1 97 0.3 SE 17 26 9 14 1012.1 1012.0 21.4
16/06:30am 20.6 21.5 20.1 97 0.3 SE 15 26 8 14 1012.0 1011.9 21.2
16/06:00am 20.6 23.2 20.1 97 0.3 ENE 6 6 3 3 1012.1 1012.0 20.0
16/05:30am 20.5 23.1 20.0 97 0.3 SSW 6 7 3 4 1011.7 1011.6 19.6
16/05:10am 20.5 24.2 20.0 97 0.3 CALM 0 0 0 0 1011.7 1011.6 18.8
16/05:00am 20.4 23.7 19.9 97 0.3 NE 2 11 1 6 1011.7 1011.6 18.2
16/04:31am 20.5 21.9 19.5 94 0.6 E 11 19 6 10 1011.5 1011.4 12.4
16/04:30am 20.6 21.7 19.6 94 0.6 E 13 19 7 10 1011.4 1011.3 12.2
16/04:16am 21.0 21.6 19.5 91 1.0 E 15 22 8 12 1011.3 1011.2 3.4
16/04:00am 21.7 23.9 19.6 88 1.3 S 7 9 4 5 1010.9 1010.8 0.4
16/03:30am 21.4 23.3 19.7 90 1.1 SSW 9 11 5 6 1010.5 1010.4 0.2
16/03:00am 21.6 23.8 19.7 89 1.2 E 7 9 4 5 1010.3 1010.2 0.2
16/02:30am 21.6 23.8 19.5 88 1.3 SSE 7 11 4 6 1010.5 1010.4 0.2
16/02:00am 21.7 22.8 19.6 88 1.3 SSE 13 19 7 10 1010.6 1010.5 0.2
16/01:30am 21.7 22.4 19.6 88 1.3 SSE 15 20 8 11 1010.5 1010.4 0.2
16/01:00am 21.6 22.7 19.7 89 1.2 S 13 15 7 8 1010.8 1010.7 0.2
16/12:30am 21.7 22.9 20.0 90 1.1 S 13 17 7 9 1010.9 1010.8 0.2
16/12:00am 21.6 23.7 20.1 91 1.0 S 9 13 5 7 1011.2 1011.1 0.2
 
Date/Time
EST
Temp
°C
App
Temp
°C
Dew
Point
°C
Rel
Hum
%
Delta-T
°C
Wind Press
QNH
hPa
Press
MSL
hPa
Rain since
9am
mm
Dir  Spd
km/h
Gust
km/h
Spd
kts
Gust
kts
15/11:30pm 21.6 23.7 20.2 92 0.9 SSW 9 11 5 6 1011.3 1011.2 0.2
15/11:00pm 21.7 23.9 20.3 92 0.9 S 9 13 5 7 1011.7 1011.6 0.2
15/10:30pm 21.6 23.9 20.6 94 0.6 S 9 11 5 6 1011.9 1011.8 0.2
15/10:00pm 21.6 24.0 20.8 95 0.5 SSW 9 13 5 7 1012.2 1012.1 0.2
15/09:30pm 21.7 23.7 20.7 94 0.6 SSW 11 15 6 8 1012.1 1012.0 0.2
15/09:00pm 21.8 23.7 20.6 93 0.8 S 11 15 6 8 1011.7 1011.6 0.0
15/08:30pm 21.8 25.0 20.4 92 0.9 SSW 4 9 2 5 1011.6 1011.5 0.0
15/08:00pm 21.9 24.5 20.5 92 0.9 SSW 7 11 4 6 1011.3 1011.2 0.0
15/07:30pm 22.0 23.5 20.6 92 0.9 SE 13 19 7 10 1010.4 1010.3 0.0
15/07:00pm 22.7 23.7 20.2 86 1.6 SSE 15 20 8 11 1010.8 1010.7 0.0
15/06:30pm 24.2 25.5 20.1 78 2.7 ESE 13 20 7 11 1010.7 1010.6 0.0
15/06:00pm 24.4 24.9 20.1 77 2.8 ESE 17 24 9 13 1010.2 1010.1 0.0
15/05:30pm 24.5 25.5 20.2 77 2.8 ESE 15 22 8 12 1009.7 1009.6 0.0
15/05:00pm 24.6 24.1 19.9 75 3.0 ESE 22 33 12 18 1009.2 1009.1 0.0
15/04:30pm 25.1 24.6 20.8 77 2.8 ESE 24 33 13 18 1008.8 1008.7 0.0
15/04:00pm 25.7 24.5 20.0 71 3.7 ESE 26 33 14 18 1008.3 1008.2 0.0
15/03:30pm 27.0 25.7 19.9 65 4.6 ESE 26 39 14 21 1008.7 1008.6 0.0
15/03:00pm 26.6 25.2 19.7 66 4.5 ESE 26 37 14 20 1008.5 1008.4 0.0
15/02:30pm 27.2 26.3 19.0 61 5.3 ESE 22 32 12 17 1008.8 1008.7 0.0
15/02:00pm 29.3 27.1 17.8 50 7.3 ESE 26 35 14 19 1008.9 1008.8 0.0
15/01:30pm 31.1 30.7 19.4 49 7.7 E 20 30 11 16 1009.3 1009.2 0.0
15/01:00pm 29.2 27.8 18.0 51 7.2 ESE 22 33 12 18 1009.7 1009.6 0.0
15/12:30pm 29.6 28.7 17.8 49 7.5 ESE 19 30 10 16 1010.1 1010.0 0.0
15/12:00pm 29.8 28.6 17.6 48 7.8 SE 20 33 11 18 1010.5 1010.4 0.0
15/11:30am 28.9 27.9 18.9 54 6.5 SE 22 35 12 19 1011.0 1010.9 0.0
15/11:00am 29.2 28.3 18.3 51 7.0 ESE 20 33 11 18 1011.3 1011.2 0.0
15/10:30am 28.5 27.8 18.3 54 6.5 ESE 19 28 10 15 1011.6 1011.5 0.0
15/10:00am 28.4 27.7 18.2 54 6.5 ESE 19 26 10 14 1011.8 1011.7 0.0
15/09:30am 26.5 26.8 19.6 66 4.5 ESE 17 24 9 13 1011.9 1011.8 0.0
15/09:00am 27.1 29.1 20.7 68 4.2 ESE 11 20 6 11 1012.1 1012.0 0.4

Other Formats:

Comma delimited format used in spreadsheet applications
http://www.bom.gov.au/fwo/IDQ60801/IDQ60801.94365.axf

JavaScript Object Notation format (JSON) in row-major order
http://www.bom.gov.au/fwo/IDQ60801/IDQ60801.94365.json